Time;durP1;ratioP1;P1;durP2;ratioP2;P2;SDS_P1;SDS_P2;PMS_P1;PMS_P2;Temp;Humidity;BMP_temperature;BMP_pressure;BME280_temperature;BME280_humidity;BME280_pressure;Samples;Min_cycle;Max_cycle;Signal;HPM_P1;HPM_P2
2021/04/19 00:02:41;;;;;;;1.45;1.20;;;20.30;47.40;;;;;;6367677;27;20023;-63
2021/04/19 00:05:42;;;;;;;0.90;0.80;;;20.30;47.40;;;;;;6367696;27;20023;-62
2021/04/19 00:08:42;;;;;;;1.40;0.90;;;20.30;47.40;;;;;;6368148;27;20034;-62
2021/04/19 00:11:44;;;;;;;1.30;0.90;;;20.30;47.40;;;;;;6367085;27;20123;-62
2021/04/19 00:14:44;;;;;;;1.50;1.00;;;20.30;47.40;;;;;;6367878;27;20102;-62
2021/04/19 00:17:45;;;;;;;1.90;1.00;;;20.30;47.40;;;;;;6368511;27;20027;-62
2021/04/19 00:20:46;;;;;;;1.30;1.00;;;20.30;47.40;;;;;;6368423;27;20023;-62
2021/04/19 00:23:46;;;;;;;1.17;0.75;;;20.30;47.40;;;;;;6359330;27;20338;-62
2021/04/19 00:26:47;;;;;;;0.95;0.73;;;20.30;47.40;;;;;;6354957;27;20023;-65
2021/04/19 00:29:47;;;;;;;1.35;0.90;;;20.30;47.40;;;;;;6366223;27;20038;-64
2021/04/19 00:32:48;;;;;;;0.98;0.80;;;20.30;47.40;;;;;;6347207;27;20039;-65
2021/04/19 00:35:48;;;;;;;1.10;0.85;;;20.30;47.40;;;;;;6346140;28;20035;-65
2021/04/19 00:38:49;;;;;;;0.90;0.70;;;20.30;47.40;;;;;;6365943;27;20031;-65
2021/04/19 00:41:50;;;;;;;1.17;0.80;;;20.30;47.40;;;;;;6357498;27;20416;-65
2021/04/19 00:44:50;;;;;;;0.95;0.80;;;20.30;47.40;;;;;;6342357;28;20031;-64
2021/04/19 00:47:51;;;;;;;1.60;0.95;;;20.30;47.40;;;;;;6360743;27;20117;-65
2021/04/19 00:50:55;;;;;;;1.17;0.88;;;20.30;47.40;;;;;;6367995;28;20035;-65
2021/04/19 00:53:55;;;;;;;0.98;0.90;;;20.30;47.40;;;;;;6368003;27;20033;-65
2021/04/19 00:56:56;;;;;;;0.85;0.80;;;20.30;47.40;;;;;;6367976;28;20481;-65
2021/04/19 00:59:57;;;;;;;1.52;1.00;;;20.30;47.40;;;;;;6367643;27;20471;-64
2021/04/19 01:02:58;;;;;;;1.20;1.00;;;20.30;47.40;;;;;;6367003;28;20023;-64
2021/04/19 01:05:58;;;;;;;0.75;0.60;;;20.30;47.40;;;;;;6367304;28;20366;-64
2021/04/19 01:08:59;;;;;;;1.88;1.10;;;20.30;47.40;;;;;;6367435;28;20037;-65
2021/04/19 01:11:59;;;;;;;1.50;1.13;;;20.30;47.30;;;;;;6367730;28;20384;-64
2021/04/19 01:15:00;;;;;;;4.32;0.98;;;20.30;47.40;;;;;;6367593;28;20028;-65
2021/04/19 01:18:01;;;;;;;1.65;0.90;;;20.30;47.40;;;;;;6367112;28;20023;-65
2021/04/19 01:21:01;;;;;;;1.17;0.75;;;20.30;47.40;;;;;;6367412;28;20027;-65
2021/04/19 01:24:02;;;;;;;0.98;0.90;;;20.30;47.40;;;;;;6355407;28;20035;-65
2021/04/19 01:27:03;;;;;;;2.00;0.93;;;20.30;47.30;;;;;;6348960;28;20024;-64
2021/04/19 01:30:06;;;;;;;1.00;0.90;;;20.30;47.40;;;;;;6367472;27;20035;-64
2021/04/19 01:33:07;;;;;;;1.88;0.98;;;20.30;47.40;;;;;;6362603;27;20098;-65
2021/04/19 01:36:08;;;;;;;0.90;0.80;;;20.30;47.40;;;;;;6367409;27;21290;-64
2021/04/19 01:39:08;;;;;;;1.45;0.90;;;20.30;47.30;;;;;;6367299;27;20034;-65
2021/04/19 01:42:09;;;;;;;0.82;0.70;;;20.30;47.30;;;;;;6367314;28;20023;-65
2021/04/19 01:45:10;;;;;;;0.88;0.80;;;20.30;47.30;;;;;;6367777;28;20099;-65
2021/04/19 01:48:10;;;;;;;0.77;0.60;;;20.30;47.30;;;;;;6366819;27;20074;-64
2021/04/19 01:51:11;;;;;;;0.95;0.82;;;20.30;47.30;;;;;;6368287;28;20367;-65
2021/04/19 01:54:12;;;;;;;0.93;0.80;;;20.30;47.40;;;;;;6367234;28;20110;-64
2021/04/19 01:57:13;;;;;;;0.70;0.63;;;20.30;47.40;;;;;;6354797;27;20067;-65
2021/04/19 02:00:14;;;;;;;0.70;0.60;;;20.30;47.30;;;;;;6372508;27;20628;-64
2021/04/19 02:03:46;;;;;;;1.20;0.77;;;20.30;47.40;;;;;;6371475;27;20484;-65
2021/04/19 02:07:18;;;;;;;0.93;0.85;;;20.30;47.30;;;;;;6371711;27;20019;-65
2021/04/19 02:10:27;;;;;;;1.08;0.80;;;20.30;47.30;;;;;;6371577;27;20023;-65
2021/04/19 02:13:58;;;;;;;1.00;0.80;;;20.30;47.30;;;;;;6371204;27;20054;-65
2021/04/19 02:17:26;;;;;;;0.95;0.70;;;20.30;47.30;;;;;;6371484;27;20421;-64
2021/04/19 02:20:47;;;;;;;1.10;0.95;;;20.30;47.30;;;;;;6371382;27;20023;-65
2021/04/19 02:23:54;;;;;;;0.95;0.85;;;20.30;47.30;;;;;;6360395;27;20020;-64
2021/04/19 02:27:02;;;;;;;0.63;0.60;;;20.30;47.30;;;;;;6345664;28;20399;-64
2021/04/19 02:30:08;;;;;;;1.10;1.00;;;20.30;47.30;;;;;;6365364;27;20485;-65
2021/04/19 02:33:15;;;;;;;1.23;1.00;;;20.30;47.30;;;;;;6354856;27;20384;-65
2021/04/19 02:36:16;;;;;;;1.05;0.80;;;20.30;47.40;;;;;;6371222;27;20026;-65
2021/04/19 02:39:20;;;;;;;0.90;0.65;;;20.30;47.30;;;;;;6370828;27;20469;-65
2021/04/19 02:42:20;;;;;;;1.05;0.93;;;20.30;47.30;;;;;;6370990;27;20016;-65
2021/04/19 02:45:23;;;;;;;0.75;0.68;;;20.30;47.30;;;;;;6370501;27;20066;-64
2021/04/19 02:48:25;;;;;;;0.93;0.65;;;20.30;47.30;;;;;;6370272;27;20036;-65
2021/04/19 02:51:26;;;;;;;0.85;0.70;;;20.30;47.30;;;;;;6370553;27;20019;-65
2021/04/19 02:54:28;;;;;;;1.23;0.77;;;20.30;47.30;;;;;;6370576;27;20075;-65
2021/04/19 02:57:35;;;;;;;0.73;0.73;;;20.30;47.30;;;;;;6370525;27;20023;-64
2021/04/19 03:00:41;;;;;;;0.85;0.75;;;20.30;47.30;;;;;;6370653;27;20027;-65
2021/04/19 03:03:46;;;;;;;1.23;0.80;;;20.30;47.30;;;;;;6370186;27;20023;-65
2021/04/19 03:06:53;;;;;;;0.73;0.73;;;20.30;47.30;;;;;;6370712;27;20075;-65
2021/04/19 03:10:00;;;;;;;1.52;0.77;;;20.30;47.30;;;;;;6369657;27;20083;-65
2021/04/19 03:13:03;;;;;;;1.15;0.85;;;20.30;47.30;;;;;;6370407;27;20384;-64
2021/04/19 03:16:05;;;;;;;0.80;0.57;;;20.30;47.30;;;;;;6348121;27;20039;-65
2021/04/19 03:19:09;;;;;;;0.95;0.60;;;20.30;47.30;;;;;;6348708;27;20019;-65
2021/04/19 03:22:11;;;;;;;0.70;0.60;;;20.30;47.30;;;;;;6368467;27;20118;-65
2021/04/19 03:25:13;;;;;;;0.77;0.63;;;20.30;47.30;;;;;;6361566;27;20110;-65
2021/04/19 03:28:18;;;;;;;1.60;0.80;;;20.30;47.30;;;;;;6367007;27;20047;-65
2021/04/19 03:31:29;;;;;;;0.68;0.60;;;20.30;47.30;;;;;;6361906;27;20060;-65
2021/04/19 03:34:33;;;;;;;1.80;0.80;;;20.30;47.30;;;;;;6349256;27;20035;-64
2021/04/19 03:37:36;;;;;;;1.00;0.80;;;20.30;47.30;;;;;;6369151;27;20031;-65
2021/04/19 03:40:38;;;;;;;1.25;0.80;;;20.30;47.30;;;;;;6369269;27;20096;-65
2021/04/19 03:43:39;;;;;;;1.33;0.90;;;20.30;47.30;;;;;;6369597;27;20076;-64
2021/04/19 03:46:41;;;;;;;1.13;0.75;;;20.30;47.30;;;;;;6369055;27;20106;-65
2021/04/19 03:49:49;;;;;;;0.98;0.80;;;20.30;47.30;;;;;;6368720;27;20405;-65
2021/04/19 03:52:53;;;;;;;1.13;0.80;;;20.30;47.30;;;;;;6369434;27;20023;-65
2021/04/19 03:55:55;;;;;;;1.15;0.90;;;20.30;47.30;;;;;;6368733;27;20080;-65
2021/04/19 03:59:00;;;;;;;0.73;0.60;;;20.20;47.20;;;;;;6369301;27;20031;-65
2021/04/19 04:02:04;;;;;;;0.80;0.70;;;20.30;47.30;;;;;;6368588;27;20108;-65
2021/04/19 04:05:06;;;;;;;0.75;0.63;;;20.30;47.30;;;;;;6368899;27;20030;-64
2021/04/19 04:08:07;;;;;;;0.90;0.77;;;20.30;47.30;;;;;;6368654;27;20091;-65
2021/04/19 04:11:09;;;;;;;1.20;0.80;;;20.30;47.30;;;;;;6368899;27;20027;-65
2021/04/19 04:14:10;;;;;;;1.13;0.85;;;20.30;47.30;;;;;;6368465;27;20404;-64
2021/04/19 04:17:10;;;;;;;0.70;0.70;;;20.30;47.30;;;;;;6368738;27;20024;-65
2021/04/19 04:20:11;;;;;;;0.75;0.63;;;20.20;47.20;;;;;;6367832;27;20080;-65
2021/04/19 04:23:12;;;;;;;0.88;0.80;;;20.30;47.30;;;;;;6364500;27;20051;-65
2021/04/19 04:26:13;;;;;;;0.77;0.73;;;20.30;47.30;;;;;;6352749;27;20291;-64
2021/04/19 04:29:14;;;;;;;0.60;0.60;;;20.20;47.20;;;;;;6368087;27;20388;-65
2021/04/19 04:32:14;;;;;;;0.93;0.70;;;20.30;47.30;;;;;;6356494;27;20406;-65
2021/04/19 04:35:15;;;;;;;0.90;0.70;;;20.30;47.30;;;;;;6342750;28;20023;-65
2021/04/19 04:38:15;;;;;;;1.30;0.80;;;20.30;47.30;;;;;;6368269;27;20023;-65
2021/04/19 04:41:16;;;;;;;1.13;0.95;;;20.30;47.30;;;;;;6367906;27;20031;-65
2021/04/19 04:44:24;;;;;;;0.60;0.60;;;20.30;47.30;;;;;;6368764;27;20024;-65
2021/04/19 04:47:41;;;;;;;1.05;0.60;;;20.30;47.30;;;;;;6367647;27;20035;-64
2021/04/19 04:50:46;;;;;;;0.60;0.52;;;20.30;47.30;;;;;;6367804;27;20041;-65
2021/04/19 04:54:01;;;;;;;1.73;0.73;;;20.30;47.30;;;;;;6367745;27;20113;-64
2021/04/19 04:57:02;;;;;;;0.65;0.60;;;20.30;47.30;;;;;;6367906;27;20039;-65
2021/04/19 05:00:04;;;;;;;0.60;0.50;;;20.30;47.30;;;;;;6368318;27;20514;-64
2021/04/19 05:03:06;;;;;;;0.68;0.68;;;20.30;47.30;;;;;;6367785;27;20047;-65
2021/04/19 05:06:07;;;;;;;0.63;0.60;;;20.30;47.30;;;;;;6367690;27;20031;-65
2021/04/19 05:09:09;;;;;;;1.00;0.70;;;20.30;47.30;;;;;;6367706;27;20170;-64
2021/04/19 05:12:10;;;;;;;0.50;0.50;;;20.30;47.30;;;;;;6367916;27;20377;-64
2021/04/19 05:15:15;;;;;;;0.77;0.65;;;20.30;48.00;;;;;;6367937;27;20493;-64
2021/04/19 05:18:20;;;;;;;0.90;0.70;;;20.30;47.20;;;;;;6367181;27;20459;-65
2021/04/19 05:21:21;;;;;;;0.63;0.60;;;20.30;47.30;;;;;;6366299;28;20329;-65
2021/04/19 05:24:21;;;;;;;0.60;0.60;;;20.30;47.30;;;;;;6353949;27;20586;-64
2021/04/19 05:27:23;;;;;;;1.33;0.90;;;20.30;47.20;;;;;;6346480;28;20390;-65
2021/04/19 05:30:24;;;;;;;0.85;0.73;;;20.30;47.30;;;;;;6331212;27;20035;-64
2021/04/19 05:33:24;;;;;;;1.30;0.70;;;20.30;47.30;;;;;;6350509;27;20074;-65
2021/04/19 05:36:26;;;;;;;3.00;2.60;;;20.20;47.20;;;;;;6343001;27;20043;-64
2021/04/19 05:39:27;;;;;;;4.70;2.75;;;20.20;46.80;;;;;;6356389;27;20598;-64
2021/04/19 05:42:27;;;;;;;5.45;3.50;;;20.20;46.00;;;;;;6347912;27;20065;-64
2021/04/19 05:45:28;;;;;;;4.75;3.72;;;20.10;45.90;;;;;;6349213;27;20045;-65
2021/04/19 05:48:29;;;;;;;4.25;3.53;;;20.10;45.30;;;;;;6354576;27;20115;-64
2021/04/19 05:51:39;;;;;;;5.72;4.28;;;20.10;45.20;;;;;;6348179;27;20057;-65
2021/04/19 05:54:41;;;;;;;6.20;4.50;;;20.10;45.10;;;;;;6349000;27;20029;-64
2021/04/19 05:58:19;;;;;;;5.72;4.35;;;20.10;45.10;;;;;;6363748;27;20020;-64
2021/04/19 06:01:23;;;;;;;6.50;4.57;;;20.10;44.70;;;;;;6331743;27;20126;-64
2021/04/19 06:04:56;;;;;;;7.30;4.93;;;20.10;44.40;;;;;;6341618;27;20411;-65
2021/04/19 06:08:08;;;;;;;5.80;4.35;;;20.10;44.40;;;;;;6362540;27;20034;-65
2021/04/19 06:11:31;;;;;;;7.43;3.60;;;20.10;44.00;;;;;;6344492;28;20012;-64
2021/04/19 06:14:36;;;;;;;4.00;3.35;;;20.10;44.10;;;;;;6345259;27;20449;-65
2021/04/19 06:17:42;;;;;;;4.10;3.00;;;20.10;45.20;;;;;;6345775;27;20059;-65
2021/04/19 06:20:43;;;;;;;5.35;3.08;;;20.20;44.80;;;;;;6350633;27;20046;-65
2021/04/19 06:23:43;;;;;;;5.30;2.88;;;20.20;44.90;;;;;;6343637;27;20063;-64
2021/04/19 06:26:44;;;;;;;4.03;2.70;;;20.20;45.20;;;;;;6362872;27;20368;-65
2021/04/19 06:29:45;;;;;;;6.30;2.58;;;20.20;45.30;;;;;;6348017;27;20046;-65
2021/04/19 06:32:48;;;;;;;3.47;2.38;;;20.20;45.30;;;;;;6357464;27;20015;-65
2021/04/19 06:35:49;;;;;;;4.22;2.60;;;20.20;45.40;;;;;;6348371;27;20539;-64
2021/04/19 06:38:50;;;;;;;3.22;2.28;;;20.20;45.40;;;;;;6342644;27;20020;-64
2021/04/19 06:41:50;;;;;;;4.25;2.38;;;20.20;45.70;;;;;;6356514;27;20099;-65
2021/04/19 06:44:51;;;;;;;2.65;2.28;;;20.20;45.80;;;;;;6353884;27;20401;-65
2021/04/19 06:47:53;;;;;;;5.93;2.30;;;20.30;45.80;;;;;;6342451;28;20111;-65
2021/04/19 06:50:54;;;;;;;4.45;2.60;;;20.40;45.90;;;;;;6346470;27;20016;-65
2021/04/19 06:53:56;;;;;;;3.72;2.22;;;20.40;45.60;;;;;;6350491;27;20080;-63
2021/04/19 06:56:58;;;;;;;3.92;2.33;;;20.40;45.70;;;;;;6343288;28;20366;-64
2021/04/19 07:00:03;;;;;;;3.25;2.00;;;20.40;45.70;;;;;;6335896;27;20042;-64
2021/04/19 07:03:05;;;;;;;5.68;2.55;;;20.30;45.80;;;;;;6330743;28;20386;-65
2021/04/19 07:06:06;;;;;;;4.43;2.13;;;20.30;45.80;;;;;;6334172;27;20149;-64
2021/04/19 07:09:24;;;;;;;4.38;2.30;;;20.30;45.80;;;;;;6331935;27;20038;-64
2021/04/19 07:12:26;;;;;;;3.25;2.30;;;20.30;45.80;;;;;;6332006;27;20035;-64
2021/04/19 07:15:27;;;;;;;2.92;2.15;;;20.30;45.80;;;;;;6340804;27;20091;-65
2021/04/19 07:18:28;;;;;;;3.15;1.98;;;20.30;45.80;;;;;;6343037;28;20024;-64
2021/04/19 07:21:29;;;;;;;2.03;1.65;;;20.30;46.00;;;;;;6360120;27;20023;-65
2021/04/19 07:24:30;;;;;;;4.07;2.10;;;20.30;45.90;;;;;;6351835;27;20431;-65
2021/04/19 07:27:30;;;;;;;6.43;2.05;;;20.30;46.00;;;;;;6343095;27;20104;-65
2021/04/19 07:30:32;;;;;;;2.45;1.88;;;20.30;46.00;;;;;;6351784;27;20169;-64
2021/04/19 07:33:35;;;;;;;2.80;2.05;;;20.30;46.00;;;;;;6345983;27;20067;-64
2021/04/19 07:36:35;;;;;;;2.88;1.88;;;20.30;46.10;;;;;;6351019;27;20446;-64
2021/04/19 07:39:38;;;;;;;4.22;1.92;;;20.30;46.10;;;;;;6349570;27;20020;-65
2021/04/19 07:42:39;;;;;;;4.93;1.90;;;20.30;46.20;;;;;;6347761;27;20050;-64
2021/04/19 07:45:59;;;;;;;4.35;2.08;;;20.30;46.20;;;;;;6354624;27;20051;-64
2021/04/19 07:49:00;;;;;;;2.65;1.83;;;20.30;46.30;;;;;;6339921;27;20063;-64
2021/04/19 07:52:08;;;;;;;3.70;2.22;;;20.30;46.30;;;;;;6354487;27;20030;-64
2021/04/19 07:55:13;;;;;;;2.63;1.80;;;20.30;46.30;;;;;;6351932;27;20034;-65
2021/04/19 07:58:24;;;;;;;2.67;1.98;;;20.30;46.30;;;;;;6348993;27;20080;-64
2021/04/19 08:01:24;;;;;;;2.40;1.67;;;20.30;46.30;;;;;;6353345;27;20062;-64
2021/04/19 08:04:25;;;;;;;2.25;1.75;;;20.30;46.30;;;;;;6343022;28;20024;-64
2021/04/19 08:07:29;;;;;;;3.78;2.20;;;20.30;46.30;;;;;;6342238;27;20024;-64
2021/04/19 08:10:30;;;;;;;3.40;1.58;;;20.30;46.30;;;;;;6349474;27;20589;-65
2021/04/19 08:13:31;;;;;;;2.33;1.80;;;20.30;46.40;;;;;;6348031;27;20059;-65
2021/04/19 08:16:31;;;;;;;2.45;2.00;;;20.30;46.40;;;;;;6347569;27;20028;-64
2021/04/19 08:19:34;;;;;;;2.70;2.03;;;20.30;46.40;;;;;;6342138;28;20405;-64
2021/04/19 08:22:35;;;;;;;3.08;1.85;;;20.30;46.50;;;;;;6351396;27;20020;-64
2021/04/19 08:25:39;;;;;;;1.90;1.60;;;20.40;46.60;;;;;;6349123;27;20128;-65
2021/04/19 08:28:47;;;;;;;4.25;1.90;;;20.30;46.50;;;;;;6360051;27;20469;-64
2021/04/19 08:31:48;;;;;;;2.53;1.88;;;20.40;46.70;;;;;;6358641;27;20023;-65
2021/04/19 08:34:50;;;;;;;3.60;1.95;;;20.40;46.80;;;;;;6342497;28;20133;-64
2021/04/19 08:37:52;;;;;;;2.47;1.67;;;20.40;46.60;;;;;;6359726;27;20028;-64
2021/04/19 08:40:53;;;;;;;6.05;1.52;;;20.40;46.70;;;;;;6362844;27;20076;-64
2021/04/19 08:43:54;;;;;;;2.90;1.58;;;20.30;46.60;;;;;;6345454;27;20409;-64
2021/04/19 08:46:55;;;;;;;8.60;2.15;;;20.40;46.70;;;;;;6344216;27;20024;-64
2021/04/19 08:50:01;;;;;;;8.95;2.88;;;20.40;46.70;;;;;;6341799;28;20055;-64
2021/04/19 08:53:01;;;;;;;3.47;2.67;;;20.40;46.40;;;;;;6338423;28;20088;-65
2021/04/19 08:56:02;;;;;;;8.27;2.83;;;20.40;46.70;;;;;;6337288;28;20032;-64
2021/04/19 08:59:03;;;;;;;4.03;2.65;;;20.40;46.90;;;;;;6355303;28;20062;-64
2021/04/19 09:02:06;;;;;;;2.72;1.98;;;20.40;47.10;;;;;;6360676;27;20027;-64
2021/04/19 09:05:15;;;;;;;3.05;2.35;;;20.40;47.30;;;;;;6362314;27;20015;-65
2021/04/19 09:08:18;;;;;;;3.95;2.33;;;20.40;47.10;;;;;;6359651;27;20088;-64
2021/04/19 09:11:28;;;;;;;7.03;2.70;;;20.40;47.30;;;;;;6350176;27;20499;-63
2021/04/19 09:14:34;;;;;;;3.40;2.28;;;20.40;47.20;;;;;;6347611;27;20031;-65
2021/04/19 09:17:38;;;;;;;2.97;2.20;;;20.40;47.20;;;;;;6353443;27;20054;-64
2021/04/19 09:20:53;;;;;;;2.08;1.73;;;20.40;47.20;;;;;;6346800;28;20035;-64
2021/04/19 09:23:55;;;;;;;;;;;20.40;47.10;;;;;;6353167;27;20396;-65
2021/04/19 09:27:02;;;;;;;2.83;2.03;;;20.40;47.20;;;;;;6352515;27;20015;-64
2021/04/19 09:30:22;;;;;;;3.70;2.08;;;20.40;47.10;;;;;;6346894;27;20107;-65
2021/04/19 09:33:24;;;;;;;4.03;2.38;;;20.40;47.10;;;;;;6345215;27;20032;-64
2021/04/19 09:36:50;;;;;;;3.22;2.25;;;20.40;47.00;;;;;;6353652;27;20080;-65
2021/04/19 09:40:01;;;;;;;2.65;2.28;;;20.40;47.00;;;;;;6349245;27;20485;-64
2021/04/19 09:43:04;;;;;;;2.55;2.05;;;20.40;47.10;;;;;;6360153;27;20491;-65
2021/04/19 09:46:22;;;;;;;2.85;2.22;;;20.40;47.10;;;;;;6345830;27;20027;-65
2021/04/19 09:49:23;;;;;;;2.40;2.00;;;20.40;47.10;;;;;;6344749;28;20117;-64
2021/04/19 09:52:23;;;;;;;3.22;2.30;;;20.40;47.00;;;;;;6344711;27;20473;-63
2021/04/19 09:55:24;;;;;;;3.67;2.28;;;20.40;46.90;;;;;;6346069;27;20066;-64
2021/04/19 09:58:25;;;;;;;2.95;1.92;;;20.40;47.00;;;;;;6352109;27;20022;-64
2021/04/19 10:01:28;;;;;;;4.03;2.70;;;20.40;47.40;;;;;;6345136;28;20016;-64
2021/04/19 10:04:30;;;;;;;6.63;2.38;;;20.40;47.50;;;;;;6362779;27;20418;-65
2021/04/19 10:07:36;;;;;;;5.15;2.03;;;20.40;47.60;;;;;;6349557;27;20039;-64
2021/04/19 10:10:37;;;;;;;3.13;2.30;;;20.50;47.60;;;;;;6367777;27;20485;-65
2021/04/19 10:13:38;;;;;;;8.70;1.88;;;20.40;47.50;;;;;;6368143;27;20035;-65
2021/04/19 10:16:44;;;;;;;4.07;2.22;;;20.50;47.40;;;;;;6345048;28;20511;-65
2021/04/19 10:19:45;;;;;;;7.90;1.85;;;20.50;47.50;;;;;;6355170;27;20047;-64
2021/04/19 10:23:03;;;;;;;4.97;2.08;;;20.50;47.50;;;;;;6339968;27;20460;-64
2021/04/19 10:26:04;;;;;;;5.97;2.20;;;20.50;47.40;;;;;;6340832;27;20452;-64
2021/04/19 10:29:10;;;;;;;5.22;2.08;;;20.60;47.50;;;;;;6331482;28;20038;-65
2021/04/19 10:32:11;;;;;;;3.85;2.08;;;20.50;47.30;;;;;;6356495;27;20031;-65
2021/04/19 10:35:30;;;;;;;3.22;1.95;;;20.50;47.30;;;;;;6327191;27;20055;-64
2021/04/19 10:38:31;;;;;;;2.60;2.00;;;20.50;47.20;;;;;;6344327;27;20015;-64
2021/04/19 10:41:36;;;;;;;3.05;2.20;;;20.50;47.30;;;;;;6345656;27;20066;-64
2021/04/19 10:44:39;;;;;;;3.10;1.90;;;20.50;47.30;;;;;;6351437;27;20042;-64
2021/04/19 10:47:39;;;;;;;2.55;1.85;;;20.50;47.20;;;;;;6343870;27;20086;-64
2021/04/19 10:50:40;;;;;;;2.67;1.95;;;20.50;47.20;;;;;;6342864;28;20039;-65
2021/04/19 10:53:41;;;;;;;3.55;2.17;;;20.50;47.30;;;;;;6351893;27;20499;-65
2021/04/19 10:56:43;;;;;;;3.75;2.08;;;20.50;47.30;;;;;;6346483;27;20537;-64
2021/04/19 10:59:43;;;;;;;4.75;2.13;;;20.50;47.30;;;;;;6355472;27;20115;-65
2021/04/19 11:02:44;;;;;;;2.97;2.13;;;20.50;47.30;;;;;;6344518;28;20355;-65
2021/04/19 11:05:44;;;;;;;2.25;1.73;;;20.50;48.00;;;;;;6356676;27;20027;-64
2021/04/19 11:08:51;;;;;;;4.20;1.90;;;20.50;47.20;;;;;;6360766;27;20034;-65
2021/04/19 11:11:52;;;;;;;3.00;2.20;;;20.50;47.20;;;;;;6346087;27;20031;-65
2021/04/19 11:14:53;;;;;;;3.25;2.20;;;20.50;47.90;;;;;;6355645;27;20377;-64
2021/04/19 11:17:53;;;;;;;3.88;1.70;;;20.50;47.20;;;;;;6336002;28;20031;-65
2021/04/19 11:20:56;;;;;;;2.58;1.88;;;20.50;47.20;;;;;;6352760;27;20028;-65
2021/04/19 11:24:15;;;;;;;2.13;1.73;;;20.50;47.20;;;;;;6341997;27;20024;-65
2021/04/19 11:27:25;;;;;;;2.60;2.10;;;20.50;47.20;;;;;;6340295;28;20035;-65
2021/04/19 11:30:28;;;;;;;5.55;2.72;;;20.50;47.30;;;;;;6340124;27;20056;-65
2021/04/19 11:33:28;;;;;;;5.20;2.00;;;20.50;47.40;;;;;;6343659;27;20052;-65
2021/04/19 11:36:37;;;;;;;2.47;2.15;;;20.50;47.30;;;;;;6352110;27;20481;-64
2021/04/19 11:39:39;;;;;;;3.70;2.38;;;20.50;47.40;;;;;;6346836;27;20019;-65
2021/04/19 11:42:41;;;;;;;3.83;2.05;;;20.50;47.30;;;;;;6369802;27;20054;-65
2021/04/19 11:45:42;;;;;;;3.17;1.98;;;20.50;47.30;;;;;;6338338;27;20024;-65
2021/04/19 11:48:44;;;;;;;4.30;2.30;;;20.60;47.40;;;;;;6347985;27;20043;-65
2021/04/19 11:51:45;;;;;;;3.45;2.25;;;20.50;47.20;;;;;;6348921;27;20103;-64
2021/04/19 11:54:46;;;;;;;2.90;1.90;;;20.50;47.30;;;;;;6349633;27;20031;-64
2021/04/19 11:57:47;;;;;;;3.17;1.75;;;20.50;47.30;;;;;;6365763;27;20030;-64
2021/04/19 12:00:48;;;;;;;2.80;2.00;;;20.50;47.30;;;;;;6367581;27;20019;-65
2021/04/19 12:03:51;;;;;;;5.90;2.05;;;20.50;47.30;;;;;;6363182;27;20016;-65
2021/04/19 12:06:51;;;;;;;2.30;1.67;;;20.50;47.30;;;;;;6358449;27;20063;-65
2021/04/19 12:09:52;;;;;;;3.22;2.30;;;20.50;47.30;;;;;;6359288;27;20042;-65
2021/04/19 12:12:52;;;;;;;3.00;2.10;;;20.50;47.40;;;;;;6353357;27;20016;-65
2021/04/19 12:15:53;;;;;;;2.63;2.13;;;20.50;47.30;;;;;;6354992;27;20029;-65
2021/04/19 12:18:54;;;;;;;3.35;1.85;;;20.50;47.30;;;;;;6363538;27;20051;-65
2021/04/19 12:21:55;;;;;;;3.08;2.10;;;20.50;47.30;;;;;;6360395;27;20027;-65
2021/04/19 12:24:55;;;;;;;3.50;2.20;;;20.50;47.50;;;;;;6320414;28;20060;-64
2021/04/19 12:27:57;;;;;;;1.95;1.55;;;20.50;47.40;;;;;;6363514;27;20088;-64
2021/04/19 12:30:58;;;;;;;3.47;2.10;;;20.50;47.50;;;;;;6351738;27;20101;-63
2021/04/19 12:33:58;;;;;;;2.58;1.98;;;20.50;47.50;;;;;;6342380;28;20032;-62
2021/04/19 12:36:59;;;;;;;2.60;2.00;;;20.50;47.50;;;;;;6346147;27;20031;-64
2021/04/19 12:39:59;;;;;;;5.80;1.90;;;20.50;47.40;;;;;;6365307;27;20023;-65
2021/04/19 12:43:00;;;;;;;8.63;2.20;;;20.50;47.40;;;;;;6338184;27;20020;-65
2021/04/19 12:46:01;;;;;;;2.67;2.30;;;20.50;47.50;;;;;;6339913;27;20035;-64
2021/04/19 12:49:01;;;;;;;2.13;1.70;;;20.50;47.40;;;;;;6338268;27;20056;-64
2021/04/19 12:52:03;;;;;;;2.60;1.90;;;20.50;47.50;;;;;;6328627;27;20083;-65
2021/04/19 12:55:04;;;;;;;3.10;1.88;;;20.50;47.50;;;;;;6362488;28;20178;-64
2021/04/19 12:58:05;;;;;;;3.70;2.15;;;20.50;47.50;;;;;;6355411;27;20106;-64
2021/04/19 13:01:06;;;;;;;2.55;2.08;;;20.50;47.60;;;;;;6349135;28;20027;-64
2021/04/19 13:04:07;;;;;;;2.45;1.90;;;20.50;47.50;;;;;;6349035;27;20026;-65
2021/04/19 13:07:07;;;;;;;2.42;1.80;;;20.50;47.50;;;;;;6346190;28;20478;-65
2021/04/19 13:10:08;;;;;;;2.60;2.20;;;20.50;47.50;;;;;;6346526;28;20035;-64
2021/04/19 13:13:09;;;;;;;2.97;2.00;;;20.50;47.50;;;;;;6362282;28;20046;-64
2021/04/19 13:16:09;;;;;;;3.67;2.00;;;20.50;47.50;;;;;;6369937;27;20047;-64
2021/04/19 13:19:10;;;;;;;2.45;1.70;;;20.50;47.60;;;;;;6350231;27;20038;-65
2021/04/19 13:22:11;;;;;;;2.75;1.98;;;20.50;47.60;;;;;;6353072;28;20501;-64
2021/04/19 13:25:12;;;;;;;2.88;1.80;;;20.50;47.60;;;;;;6324199;28;20027;-62
2021/04/19 13:28:13;;;;;;;2.70;1.90;;;20.50;47.60;;;;;;6345235;28;20016;-62
2021/04/19 13:31:13;;;;;;;3.78;1.67;;;20.50;47.60;;;;;;6322730;28;20055;-62
2021/04/19 13:34:18;;;;;;;2.00;1.80;;;20.50;47.60;;;;;;6343552;28;20534;-64
2021/04/19 13:37:18;;;;;;;2.08;1.70;;;20.50;47.60;;;;;;6366917;28;20016;-65
2021/04/19 13:40:19;;;;;;;3.38;1.98;;;20.50;47.60;;;;;;6343567;28;20108;-64
2021/04/19 13:43:20;;;;;;;5.53;1.58;;;20.50;47.60;;;;;;6360707;28;20019;-64
2021/04/19 13:46:21;;;;;;;1.83;1.48;;;20.50;47.60;;;;;;6369738;27;20028;-64
2021/04/19 13:49:22;;;;;;;2.95;1.60;;;20.50;47.60;;;;;;6365958;27;20059;-64
2021/04/19 13:52:22;;;;;;;3.05;1.70;;;20.50;47.60;;;;;;6371910;27;20031;-64
2021/04/19 13:55:23;;;;;;;8.18;3.45;;;20.50;47.70;;;;;;6349230;27;20031;-64
2021/04/19 13:58:23;;;;;;;4.15;2.85;;;20.50;48.10;;;;;;6358316;27;20085;-64
2021/04/19 14:01:24;;;;;;;3.80;2.75;;;20.50;47.80;;;;;;6363022;27;20031;-64
2021/04/19 14:04:24;;;;;;;2.50;2.00;;;20.50;47.70;;;;;;6360116;27;20477;-64
2021/04/19 14:07:25;;;;;;;3.42;1.85;;;20.50;47.70;;;;;;6361784;27;20020;-64
2021/04/19 14:10:26;;;;;;;6.88;2.58;;;20.50;47.70;;;;;;6350998;27;20123;-64
2021/04/19 14:13:27;;;;;;;3.95;2.33;;;20.50;47.70;;;;;;6359855;27;20042;-64
2021/04/19 14:16:27;;;;;;;3.90;2.30;;;20.50;47.70;;;;;;6373575;27;20031;-64
2021/04/19 14:19:29;;;;;;;3.85;2.50;;;20.50;47.70;;;;;;6360089;27;20032;-64
2021/04/19 14:22:30;;;;;;;2.75;2.33;;;20.50;47.70;;;;;;6348248;27;20156;-64
2021/04/19 14:25:30;;;;;;;3.25;2.50;;;20.50;47.70;;;;;;6361767;27;20019;-64
2021/04/19 14:28:31;;;;;;;2.03;1.83;;;20.50;47.70;;;;;;6369631;27;20039;-64
2021/04/19 14:31:32;;;;;;;3.17;2.40;;;20.50;47.70;;;;;;6366652;27;20030;-64
2021/04/19 14:34:33;;;;;;;4.78;2.20;;;20.50;47.70;;;;;;6364662;27;20204;-65
2021/04/19 14:37:34;;;;;;;2.72;2.10;;;20.50;47.70;;;;;;6359591;27;20073;-64
2021/04/19 14:40:36;;;;;;;3.58;1.98;;;20.50;47.80;;;;;;6357133;27;20024;-64
2021/04/19 14:43:38;;;;;;;4.90;2.28;;;20.50;47.80;;;;;;6353587;27;20033;-64
2021/04/19 14:46:38;;;;;;;3.15;2.08;;;20.50;47.70;;;;;;6347378;28;20107;-64
2021/04/19 14:49:39;;;;;;;4.50;2.20;;;20.50;47.70;;;;;;6360256;27;20051;-65
2021/04/19 14:52:40;;;;;;;4.63;2.60;;;20.50;47.80;;;;;;6373124;27;20026;-65
2021/04/19 14:55:41;;;;;;;12.60;3.30;;;20.50;47.60;;;;;;6358452;27;20024;-64
2021/04/19 14:58:42;;;;;;;8.70;3.13;;;20.50;46.10;;;;;;6352826;27;20027;-64
2021/04/19 15:01:43;;;;;;;7.68;2.70;;;20.50;46.00;;;;;;6345873;28;20692;-64
2021/04/19 15:04:43;;;;;;;6.25;3.03;;;20.50;45.80;;;;;;6354525;27;20031;-64
2021/04/19 15:07:44;;;;;;;9.68;2.80;;;20.50;46.10;;;;;;6367948;27;20015;-64
2021/04/19 15:10:45;;;;;;;5.25;2.60;;;20.50;46.20;;;;;;6359190;27;20088;-65
2021/04/19 15:13:45;;;;;;;7.90;3.05;;;20.50;46.30;;;;;;6350249;27;20027;-64
2021/04/19 15:16:46;;;;;;;10.60;3.22;;;20.40;46.00;;;;;;6351454;27;20051;-64
2021/04/19 15:19:47;;;;;;;11.27;3.20;;;20.40;45.80;;;;;;6355208;27;20465;-64
2021/04/19 15:22:49;;;;;;;7.88;3.00;;;20.40;45.30;;;;;;6340270;27;20051;-64
2021/04/19 15:25:49;;;;;;;6.22;3.08;;;20.40;45.00;;;;;;6346385;27;20036;-64
2021/04/19 15:28:50;;;;;;;7.60;2.55;;;20.40;45.70;;;;;;6345872;27;20431;-64
2021/04/19 15:31:50;;;;;;;13.32;2.95;;;20.40;45.30;;;;;;6346170;27;20036;-64
2021/04/19 15:34:52;;;;;;;8.02;2.63;;;20.40;44.70;;;;;;6334189;27;20033;-64
2021/04/19 15:37:52;;;;;;;11.05;3.22;;;20.40;45.70;;;;;;6341491;27;20031;-64
2021/04/19 15:40:53;;;;;;;8.07;2.58;;;20.40;44.60;;;;;;6362095;27;20027;-65
2021/04/19 15:43:54;;;;;;;6.45;2.58;;;20.40;45.00;;;;;;6346041;28;20107;-65
2021/04/19 15:46:54;;;;;;;13.00;2.67;;;20.40;45.60;;;;;;6363553;27;20027;-64
2021/04/19 15:49:55;;;;;;;12.07;2.33;;;20.40;45.80;;;;;;6370280;27;20100;-65
2021/04/19 15:52:56;;;;;;;10.90;2.42;;;20.40;45.90;;;;;;6348118;27;20050;-65
2021/04/19 15:55:57;;;;;;;7.95;2.78;;;20.40;46.10;;;;;;6344039;28;20028;-64